This is the latest recevied weather packets stored in our database for station/object KF0FSA. If no packets are shown the sender has not sent any weather packets the latest 1 day(s).
| Time | Temp. | Humidity | Pressure | Rain* | Wind** | Luminosity | Snow |
|---|---|---|---|---|---|---|---|
| 1778030359 | 7.78° C | 40% | 960.2 hPa | 0 mm | 2.24 m/s, 302° | 13 W/m² | - |
| 1778030058 | 8.33° C | 40% | 960.2 hPa | 0 mm | 2.24 m/s, 324° | 16 W/m² | - |
| 1778029759 | 8.33° C | 39% | 960.2 hPa | 0 mm | 2.24 m/s, 337° | 20 W/m² | - |
| 1778029460 | 8.33° C | 40% | 960.1 hPa | 0 mm | 1.79 m/s, 281° | 28 W/m² | - |
| 1778029159 | 8.33° C | 39% | 960.1 hPa | 0 mm | 1.79 m/s, 326° | 36 W/m² | - |
| 1778028859 | 8.89° C | 39% | 960 hPa | 0 mm | 2.24 m/s, 316° | 49 W/m² | - |
| 1778028559 | 8.89° C | 38% | 959.9 hPa | 0 mm | 2.24 m/s, 323° | 53 W/m² | - |
| 1778028383 | 8.89° C | 37% | 959.8 hPa | 0 mm | 2.68 m/s, 327° | 57 W/m² | - |
| 1778027959 | 8.89° C | 37% | 959.7 hPa | 0 mm | 2.68 m/s, 310° | 75 W/m² | - |
| 1778027656 | 8.89° C | 38% | 959.7 hPa | 0 mm | 2.68 m/s, 310° | 87 W/m² | - |
| 1778027357 | 9.44° C | 38% | 959.7 hPa | 0 mm | 2.68 m/s, 317° | 88 W/m² | - |
| 1778027176 | 9.44° C | 38% | 959.6 hPa | 0 mm | 2.68 m/s, 342° | 99 W/m² | - |
| 1778026752 | 9.44° C | 38% | 959.5 hPa | 0 mm | 2.68 m/s, 290° | 124 W/m² | - |
| 1778026587 | 9.44° C | 37% | 959.5 hPa | 0 mm | 2.68 m/s, 311° | 59 W/m² | - |
| 1778026151 | 9.44° C | 36% | 959.4 hPa | 0 mm | 2.68 m/s, 295° | 144 W/m² | - |
| 1778025852 | 9.44° C | 36% | 959.3 hPa | 0 mm | 2.68 m/s, 355° | 138 W/m² | - |
| 1778025552 | 9.44° C | 36% | 959.3 hPa | 0 mm | 2.68 m/s, 304° | 178 W/m² | - |
| 1778025252 | 9.44° C | 38% | 959.4 hPa | 0 mm | 2.68 m/s, 308° | 190 W/m² | - |
| 1778024953 | 9.44° C | 37% | 959.4 hPa | 0 mm | 2.68 m/s, 350° | 109 W/m² | - |
| 1778024652 | 9.44° C | 37% | 959.2 hPa | 0 mm | 2.68 m/s, 343° | 254 W/m² | - |
| 1778024352 | 9.44° C | 36% | 959.4 hPa | 0 mm | 2.68 m/s, 352° | 161 W/m² | - |
| 1778024053 | 9.44° C | 35% | 959.3 hPa | 0 mm | 2.68 m/s, 5° | 145 W/m² | - |
| 1778023752 | 9.44° C | 36% | 959.4 hPa | 0 mm | 3.13 m/s, 248° | 155 W/m² | - |
| 1778023453 | 9.44° C | 36% | 959.4 hPa | 0 mm | 3.13 m/s, 332° | 156 W/m² | - |
| 1778023153 | 10° C | 35% | 959.2 hPa | 0 mm | 3.13 m/s, 310° | 168 W/m² | - |
* Rain latest hour (hover to see other rain measurements)
** Current wind speed in m/s (hover to see current wind gust speed)